Weather at Flugplatz Kagiswil

Public forecast

Using degrees Celsius for public forecast. Weather courtesy of forecast.io.

Closest aviation weather report (METAR) to Flugplatz Kagiswil

Closest report is Alpnach Air Base, 2.5 nm (4.6 km) NNE. Retrieved 2021/05/11 19:50 UTC (34 minutes ago):

LSMA 111950Z AUTO 20005KT 9999NDV -RA BKN049 OVC062 10/09 Q1014 RMK

Closest aviation forecast (TAF) to Flugplatz Kagiswil

Closest forecast is Alpnach Air Base, 2.5 nm (4.6 km) NNE. Retrieved 2021/05/11 17:00 UTC (3 hours ago):

TAF LSMA 111625Z 1117/1223 VRB02KT 9999 -RA FEW018 BKN030 TEMPO 1117/1121 4500 RA PROB30 TEMPO 1117/1202 3000 BKN012 BECMG 1203/1206 NSW PROB40 TEMPO 1209/1218 SHRA SCT030TCU